createdAt,value
2018-02-13T00:01:27.914Z,101565.32
2018-02-13T00:03:54.374Z,101566.34
2018-02-13T00:06:20.727Z,101563.75
2018-02-13T00:08:47.164Z,101563.75
2018-02-13T00:11:14.704Z,101563.35
2018-02-13T00:13:41.022Z,101567.66
2018-02-13T00:16:07.494Z,101564.38
2018-02-13T00:18:33.801Z,101566.53
2018-02-13T00:21:00.124Z,101563.70
2018-02-13T00:23:26.690Z,101552.77
2018-02-13T00:25:53.535Z,101561.94
2018-02-13T00:28:20.277Z,101551.48
2018-02-13T00:30:46.594Z,101560.67
2018-02-13T00:33:12.893Z,101550.12
2018-02-13T00:35:40.315Z,101559.39
2018-02-13T00:38:06.641Z,101557.44
2018-02-13T00:40:33.345Z,101553.73
2018-02-13T00:43:00.419Z,101549.78
2018-02-13T00:45:26.733Z,101544.12
2018-02-13T00:47:53.937Z,101538.95
2018-02-13T00:50:20.256Z,101536.99
2018-02-13T00:52:46.667Z,101536.59
2018-02-13T00:55:13.865Z,101529.81
2018-02-13T00:57:40.164Z,101527.95
2018-02-13T01:00:07.046Z,101522.00
2018-02-13T01:02:33.731Z,101511.64
2018-02-13T01:05:00.034Z,101515.35
2018-02-13T01:07:26.750Z,101515.30
2018-02-13T01:09:53.554Z,101513.54
2018-02-13T01:12:20.365Z,101507.93
2018-02-13T01:14:46.791Z,101502.55
2018-02-13T01:17:13.550Z,101506.55
2018-02-13T01:19:40.304Z,101499.77
2018-02-13T01:22:06.952Z,101499.96
2018-02-13T01:24:33.737Z,101500.45
2018-02-13T01:27:01.070Z,101504.55
2018-02-13T01:29:27.372Z,101500.34
2018-02-13T01:31:54.128Z,101492.67
2018-02-13T01:34:20.859Z,101499.31
2018-02-13T01:36:47.164Z,101497.22
2018-02-13T01:39:14.618Z,101499.95
2018-02-13T01:41:42.133Z,101487.02
2018-02-13T01:44:08.450Z,101494.28
2018-02-13T01:46:34.752Z,101494.47
2018-02-13T01:49:02.214Z,101492.07
2018-02-13T01:51:29.744Z,101490.32
2018-02-13T01:53:56.712Z,101489.05
2018-02-13T01:56:23.464Z,101483.39
2018-02-13T01:58:50.281Z,101482.89
2018-02-13T02:01:16.822Z,101480.06
2018-02-13T02:03:43.629Z,101477.53
2018-02-13T02:06:09.946Z,101471.86
2018-02-13T02:08:37.460Z,101481.47
2018-02-13T02:11:04.230Z,101476.40
2018-02-13T02:13:30.554Z,101476.19
2018-02-13T02:15:57.171Z,101465.21
2018-02-13T02:18:23.864Z,101470.53
2018-02-13T02:20:51.402Z,101456.87
2018-02-13T02:23:17.825Z,101461.01
2018-02-13T02:25:44.485Z,101458.69
2018-02-13T02:28:10.780Z,101463.89
2018-02-13T02:30:37.583Z,101453.92
2018-02-13T02:33:04.403Z,101466.27
2018-02-13T02:35:30.720Z,101459.73
2018-02-13T02:37:57.496Z,101457.30
2018-02-13T02:40:24.232Z,101454.52
2018-02-13T02:43:04.958Z,101447.48
2018-02-13T02:45:32.565Z,101448.34
2018-02-13T02:47:59.308Z,101446.11
2018-02-13T02:50:25.612Z,101447.13
2018-02-13T02:52:52.402Z,101448.09
2018-02-13T02:55:19.138Z,101444.38
2018-02-13T02:57:45.994Z,101437.91
2018-02-13T03:00:12.739Z,101435.12
2018-02-13T03:02:39.475Z,101439.98
2018-02-13T03:05:05.768Z,101440.48
2018-02-13T03:07:33.284Z,101434.15
2018-02-13T03:09:59.897Z,101439.11
2018-02-13T03:12:26.583Z,101434.28
2018-02-13T03:14:52.876Z,101436.23
2018-02-13T03:17:19.525Z,101433.45
2018-02-13T03:19:46.282Z,101433.20
2018-02-13T03:22:12.569Z,101430.31
2018-02-13T03:24:40.022Z,101427.09
2018-02-13T03:27:06.687Z,101432.44
2018-02-13T03:29:33.726Z,101430.73
2018-02-13T03:32:01.071Z,101430.30
2018-02-13T03:34:27.804Z,101423.67
2018-02-13T03:36:54.343Z,101419.92
2018-02-13T03:39:21.177Z,101414.16
2018-02-13T03:41:47.997Z,101413.63
2018-02-13T03:44:14.292Z,101422.88
2018-02-13T03:46:41.161Z,101410.02
2018-02-13T03:49:08.570Z,101406.59
2018-02-13T03:51:35.095Z,101410.64
2018-02-13T03:54:01.396Z,101402.09
2018-02-13T03:56:28.909Z,101394.73
2018-02-13T03:58:55.679Z,101402.23
2018-02-13T04:01:23.494Z,101402.14
2018-02-13T04:03:50.177Z,101398.20
2018-02-13T04:06:16.604Z,101398.72
2018-02-13T04:08:43.269Z,101388.39
2018-02-13T04:11:09.986Z,101392.64
2018-02-13T04:13:36.280Z,101390.96
2018-02-13T04:16:03.797Z,101383.02
2018-02-13T04:18:30.545Z,101380.06
2018-02-13T04:20:56.835Z,101373.22
2018-02-13T04:23:23.514Z,101381.34
2018-02-13T04:25:50.168Z,101373.66
2018-02-13T04:28:16.807Z,101364.16
2018-02-13T04:30:43.266Z,101373.38
2018-02-13T04:33:10.089Z,101366.00
2018-02-13T04:35:36.835Z,101372.71
2018-02-13T04:38:03.588Z,101367.81
2018-02-13T04:40:29.886Z,101360.97
2018-02-13T04:42:56.586Z,101367.19
2018-02-13T04:45:23.099Z,101369.34
2018-02-13T04:47:49.754Z,101361.52
2018-02-13T04:50:16.194Z,101365.06
2018-02-13T04:52:42.496Z,101361.44
2018-02-13T04:55:09.133Z,101362.77
2018-02-13T04:57:35.631Z,101353.94
2018-02-13T05:00:02.448Z,101355.91
2018-02-13T05:02:29.201Z,101350.14
2018-02-13T05:04:55.785Z,101352.66
2018-02-13T05:07:23.226Z,101349.49
2018-02-13T05:09:50.041Z,101342.71
2018-02-13T05:12:16.687Z,101337.45
2018-02-13T05:14:43.443Z,101337.97
2018-02-13T05:17:10.079Z,101337.98
2018-02-13T05:19:36.780Z,101340.69
2018-02-13T05:22:03.264Z,101335.33
2018-02-13T05:24:29.995Z,101332.25
2018-02-13T05:26:56.654Z,101321.22
2018-02-13T05:29:23.092Z,101331.36
2018-02-13T05:31:49.403Z,101324.80
2018-02-13T05:34:16.075Z,101320.91
2018-02-13T05:36:42.726Z,101328.78
2018-02-13T05:39:09.635Z,101321.97
2018-02-13T05:41:36.307Z,101319.36
2018-02-13T05:44:02.745Z,101323.55
2018-02-13T05:46:29.558Z,101313.01
2018-02-13T05:48:56.595Z,101308.00
2018-02-13T05:51:24.209Z,101296.89
2018-02-13T05:53:50.939Z,101299.44
2018-02-13T05:56:17.609Z,101295.97
2018-02-13T05:58:44.520Z,101296.03
2018-02-13T06:01:11.296Z,101290.94
2018-02-13T06:03:37.965Z,101300.34
2018-02-13T06:06:04.276Z,101300.66
2018-02-13T06:08:30.934Z,101295.08
2018-02-13T06:10:57.629Z,101296.06
2018-02-13T06:13:24.941Z,101290.25
2018-02-13T06:15:51.253Z,101295.89
2018-02-13T06:18:17.901Z,101284.41
2018-02-13T06:20:44.773Z,101285.09
2018-02-13T06:23:11.147Z,101296.66
2018-02-13T06:25:38.684Z,101292.88
2018-02-13T06:28:05.508Z,101291.09
2018-02-13T06:30:31.815Z,101285.47
2018-02-13T06:32:58.620Z,101294.01
2018-02-13T06:35:25.360Z,101290.66
2018-02-13T06:37:51.672Z,101283.52
2018-02-13T06:40:18.407Z,101291.59
2018-02-13T06:42:45.087Z,101283.88
2018-02-13T06:45:11.836Z,101284.23
2018-02-13T06:47:38.372Z,101284.39
2018-02-13T06:50:05.205Z,101280.18
2018-02-13T06:52:31.509Z,101283.50
2018-02-13T06:54:58.197Z,101274.81
2018-02-13T06:57:24.872Z,101267.77
2018-02-13T06:59:52.393Z,101277.64
2018-02-13T07:02:18.819Z,101269.33
2018-02-13T07:04:45.572Z,101270.31
2018-02-13T07:07:11.888Z,101268.59
2018-02-13T07:09:38.653Z,101273.53
2018-02-13T07:12:05.390Z,101273.41
2018-02-13T07:14:31.688Z,101276.17
2018-02-13T07:16:58.742Z,101268.91
2018-02-13T07:19:25.219Z,101271.47
2018-02-13T07:21:51.883Z,101266.69
2018-02-13T07:24:18.187Z,101270.52
2018-02-13T07:26:51.424Z,101263.09
2018-02-13T07:29:18.152Z,101267.19
2018-02-13T07:31:44.456Z,101262.08
2018-02-13T07:34:10.805Z,101261.98
2018-02-13T07:36:37.357Z,101268.60
2018-02-13T07:39:03.790Z,101270.30
2018-02-13T07:41:30.107Z,101268.28
2018-02-13T07:43:56.566Z,101264.59
2018-02-13T07:46:22.900Z,101268.27
2018-02-13T07:48:49.216Z,101270.15
2018-02-13T07:51:15.827Z,101257.73
2018-02-13T07:53:42.886Z,101249.30
2018-02-13T07:56:09.943Z,101246.70
2018-02-13T07:58:37.144Z,101248.58
2018-02-13T08:01:03.466Z,101251.71
2018-02-13T08:03:29.764Z,101251.49
2018-02-13T08:05:56.974Z,101254.69
2018-02-13T08:08:23.356Z,101253.10
2018-02-13T08:10:50.481Z,101257.05
2018-02-13T08:13:16.966Z,101259.43
2018-02-13T08:15:43.302Z,101256.59
2018-02-13T08:18:10.131Z,101254.48
2018-02-13T08:20:37.189Z,101253.67
2018-02-13T08:23:04.637Z,101245.75
2018-02-13T08:25:31.692Z,101247.82
2018-02-13T08:27:58.515Z,101245.90
2018-02-13T08:30:25.167Z,101241.22
2018-02-13T08:32:51.496Z,101239.52
2018-02-13T08:35:18.324Z,101234.57
2018-02-13T08:37:44.635Z,101232.05
2018-02-13T08:40:11.025Z,101238.59
2018-02-13T08:42:37.472Z,101224.13
2018-02-13T08:45:03.843Z,101219.28
2018-02-13T08:47:30.887Z,101222.54
2018-02-13T08:49:58.087Z,101220.61
2018-02-13T08:52:24.400Z,101217.64
2018-02-13T08:54:51.056Z,101214.88
2018-02-13T08:57:17.371Z,101207.58
2018-02-13T08:59:43.682Z,101199.77
2018-02-13T09:02:10.856Z,101202.95
2018-02-13T09:04:37.731Z,101197.40
2018-02-13T09:07:04.143Z,101189.97
2018-02-13T09:09:30.501Z,101197.61
2018-02-13T09:11:57.030Z,101182.33
2018-02-13T09:14:23.391Z,101194.73
2018-02-13T09:16:50.011Z,101200.30
2018-02-13T09:19:23.439Z,101198.25
2018-02-13T09:21:49.741Z,101198.81
2018-02-13T09:24:16.048Z,101202.98
2018-02-13T09:26:43.326Z,101194.03
2018-02-13T09:29:10.375Z,101189.08
2018-02-13T09:31:37.717Z,101189.23
2018-02-13T09:34:05.232Z,101185.34
2018-02-13T09:36:31.551Z,101188.47
2018-02-13T09:38:57.855Z,101188.84
2018-02-13T09:41:25.129Z,101191.66
2018-02-13T09:43:51.468Z,101190.67
2018-02-13T09:46:17.814Z,101186.89
2018-02-13T09:48:44.279Z,101187.39
2018-02-13T09:51:10.601Z,101181.03
2018-02-13T09:53:36.928Z,101187.99
2018-02-13T09:56:03.510Z,101181.58
2018-02-13T09:58:30.041Z,101185.35
2018-02-13T10:00:56.369Z,101184.70
2018-02-13T10:03:22.739Z,101177.33
2018-02-13T10:05:49.171Z,101181.02
2018-02-13T10:08:15.486Z,101183.82
2018-02-13T10:10:41.812Z,101172.89
2018-02-13T10:13:08.259Z,101168.55
2018-02-13T10:15:34.625Z,101174.02
2018-02-13T10:18:01.046Z,101166.28
2018-02-13T10:20:27.542Z,101172.11
2018-02-13T10:22:54.276Z,101166.05
2018-02-13T10:25:20.593Z,101156.21
2018-02-13T10:27:47.880Z,101163.84
2018-02-13T10:30:14.356Z,101165.83
2018-02-13T10:32:40.667Z,101153.39
2018-02-13T10:35:07.019Z,101157.59
2018-02-13T10:37:33.457Z,101160.03
2018-02-13T10:39:59.775Z,101155.00
2018-02-13T10:42:26.091Z,101153.23
2018-02-13T10:44:53.283Z,101151.86
2018-02-13T10:47:19.609Z,101139.52
2018-02-13T10:49:46.209Z,101150.86
2018-02-13T10:52:12.619Z,101139.13
2018-02-13T10:54:39.272Z,101144.00
2018-02-13T10:57:05.996Z,101138.02
2018-02-13T10:59:32.303Z,101137.97
2018-02-13T11:02:04.588Z,101136.88
2018-02-13T11:04:31.157Z,101140.29
2018-02-13T11:06:57.489Z,101137.11
2018-02-13T11:09:23.805Z,101130.80
2018-02-13T11:11:50.251Z,101127.39
2018-02-13T11:14:16.593Z,101119.02
2018-02-13T11:16:43.071Z,101125.55
2018-02-13T11:19:09.403Z,101119.61
2018-02-13T11:21:35.717Z,101111.63
2018-02-13T11:24:02.505Z,101102.05
2018-02-13T11:26:30.021Z,101098.39
2018-02-13T11:28:56.452Z,101096.52
2018-02-13T11:31:22.821Z,101099.59
2018-02-13T11:33:49.287Z,101097.35
2018-02-13T11:36:15.716Z,101099.84
2018-02-13T11:38:42.781Z,101102.61
2018-02-13T11:41:09.563Z,101100.03
2018-02-13T11:43:35.903Z,101094.74
2018-02-13T11:46:02.212Z,101095.12
2018-02-13T11:48:28.780Z,101082.27
2018-02-13T11:50:55.101Z,101083.59
2018-02-13T11:53:21.406Z,101086.33
2018-02-13T11:55:48.718Z,101081.33
2018-02-13T11:58:15.036Z,101079.14
2018-02-13T12:00:41.375Z,101070.64
2018-02-13T12:03:08.025Z,101069.06
2018-02-13T12:05:34.368Z,101067.72
2018-02-13T12:08:00.677Z,101060.27
2018-02-13T12:10:27.235Z,101060.16
2018-02-13T12:12:53.565Z,101048.89
2018-02-13T12:15:19.931Z,101062.16
2018-02-13T12:17:46.465Z,101050.03
2018-02-13T12:20:12.796Z,101052.82
2018-02-13T12:22:39.118Z,101040.09
2018-02-13T12:25:05.686Z,101039.78
2018-02-13T12:27:32.033Z,101039.20
2018-02-13T12:29:58.366Z,101041.23
2018-02-13T12:32:25.592Z,101037.17
2018-02-13T12:34:51.951Z,101016.52
2018-02-13T12:37:18.263Z,101023.99
2018-02-13T12:39:44.826Z,101023.55
2018-02-13T12:42:11.156Z,101019.38
2018-02-13T12:44:37.504Z,101014.09
2018-02-13T12:47:04.003Z,100997.83
2018-02-13T12:49:30.325Z,101003.59
2018-02-13T12:51:57.735Z,101007.06
2018-02-13T12:54:25.125Z,100999.15
2018-02-13T12:56:52.432Z,101006.37
2018-02-13T12:59:18.756Z,101003.11
2018-02-13T13:01:45.328Z,100995.92
2018-02-13T13:04:12.176Z,101001.59
2018-02-13T13:06:38.503Z,100999.83
2018-02-13T13:09:05.275Z,100986.74
2018-02-13T13:11:31.592Z,100982.39
2018-02-13T13:13:58.061Z,100988.00
2018-02-13T13:16:24.429Z,100986.43
2018-02-13T13:18:50.766Z,100987.95
2018-02-13T13:21:17.201Z,100983.48
2018-02-13T13:23:43.980Z,100979.29
2018-02-13T13:26:10.397Z,100973.84
2018-02-13T13:28:36.745Z,100973.89
2018-02-13T13:31:03.505Z,100975.85
2018-02-13T13:33:29.832Z,100957.05
2018-02-13T13:35:56.158Z,100970.20
2018-02-13T13:38:22.617Z,100969.00
2018-02-13T13:40:49.371Z,100973.76
2018-02-13T13:43:17.643Z,100963.05
2018-02-13T13:45:44.389Z,100955.88
2018-02-13T13:48:10.818Z,100943.92
2018-02-13T13:50:37.165Z,100952.66
2018-02-13T13:53:03.681Z,100958.27
2018-02-13T13:55:30.000Z,100944.67
2018-02-13T13:57:56.358Z,100952.67
2018-02-13T14:00:23.109Z,100940.58
2018-02-13T14:02:49.540Z,100941.13
2018-02-13T14:05:15.895Z,100943.16
2018-02-13T14:07:49.500Z,100941.20
2018-02-13T14:10:15.859Z,100938.83
2018-02-13T14:12:42.267Z,100936.80
2018-02-13T14:15:08.807Z,100931.36
2018-02-13T14:17:35.994Z,100942.78
2018-02-13T14:20:02.466Z,100934.47
2018-02-13T14:22:29.202Z,100930.12
2018-02-13T14:24:56.816Z,100933.86
2018-02-13T14:27:23.212Z,100923.69
2018-02-13T14:29:50.279Z,100932.75
2018-02-13T14:32:16.719Z,100929.63
2018-02-13T14:34:43.029Z,100925.19
2018-02-13T14:37:10.554Z,100927.38
2018-02-13T14:39:36.880Z,100924.19
2018-02-13T14:42:03.227Z,100932.34
2018-02-13T14:44:29.777Z,100929.02
2018-02-13T14:46:56.616Z,100930.58
2018-02-13T14:49:22.967Z,100936.13
2018-02-13T14:51:49.309Z,100931.22
2018-02-13T14:54:15.925Z,100929.92
2018-02-13T14:56:42.256Z,100933.50
2018-02-13T14:59:08.612Z,100931.34
2018-02-13T15:01:35.162Z,100947.66
2018-02-13T15:04:01.481Z,100937.91
2018-02-13T15:06:27.811Z,100941.03
2018-02-13T15:08:54.357Z,100941.83
2018-02-13T15:11:20.710Z,100938.50
2018-02-13T15:13:47.052Z,100935.47
2018-02-13T15:16:13.563Z,100939.92
2018-02-13T15:18:41.242Z,100942.19
2018-02-13T15:21:08.010Z,100936.31
2018-02-13T15:23:34.330Z,100941.32
2018-02-13T15:26:01.016Z,100944.56
2018-02-13T15:28:28.462Z,100941.80
2018-02-13T15:30:55.222Z,100952.08
2018-02-13T15:33:22.738Z,100950.09
2018-02-13T15:35:49.492Z,100946.57
2018-02-13T15:38:16.567Z,100945.47
2018-02-13T15:40:44.285Z,100945.73
2018-02-13T15:43:10.962Z,100943.59
2018-02-13T15:45:37.811Z,100952.27
2018-02-13T15:48:04.603Z,100950.38
2018-02-13T15:50:31.484Z,100950.69
2018-02-13T15:52:58.294Z,100949.09
2018-02-13T15:55:25.097Z,100948.75
2018-02-13T15:57:51.426Z,100955.50
2018-02-13T16:00:18.985Z,100951.91
2018-02-13T16:02:45.677Z,100957.61
2018-02-13T16:05:13.242Z,100956.67
2018-02-13T16:07:40.865Z,100956.76
2018-02-13T16:10:07.189Z,100963.11
2018-02-13T16:12:33.933Z,100957.00
2018-02-13T16:15:00.688Z,100964.41
2018-02-13T16:17:27.536Z,100967.59
2018-02-13T16:19:54.273Z,100961.25
2018-02-13T16:22:21.188Z,100966.39
2018-02-13T16:24:47.728Z,100969.11
2018-02-13T16:27:14.874Z,100969.23
2018-02-13T16:29:49.043Z,100976.70
2018-02-13T16:32:15.375Z,100966.50
2018-02-13T16:34:41.720Z,100970.67
2018-02-13T16:37:08.264Z,100971.30
2018-02-13T16:39:34.596Z,100972.39
2018-02-13T16:42:00.933Z,100973.17
2018-02-13T16:44:27.403Z,100978.80
2018-02-13T16:46:54.880Z,100984.23
2018-02-13T16:49:21.967Z,100991.84
2018-02-13T16:51:48.735Z,100989.86
2018-02-13T16:54:15.102Z,100995.09
2018-02-13T16:56:42.540Z,100999.30
2018-02-13T16:59:08.906Z,100998.09
2018-02-13T17:01:36.163Z,101002.73
2018-02-13T17:04:03.619Z,101004.34
2018-02-13T17:06:30.533Z,101003.95
2018-02-13T17:08:57.180Z,101006.59
2018-02-13T17:11:23.939Z,101004.49
2018-02-13T17:13:50.596Z,100999.37
2018-02-13T17:16:17.432Z,101001.74
2018-02-13T17:18:44.088Z,101001.61
2018-02-13T17:21:10.917Z,100998.90
2018-02-13T17:23:37.690Z,101003.24
2018-02-13T17:26:04.452Z,100998.72
2018-02-13T17:28:31.964Z,101003.74
2018-02-13T17:30:58.815Z,101006.66
2018-02-13T17:33:25.493Z,101011.38
2018-02-13T17:35:53.054Z,101012.90
2018-02-13T17:38:19.871Z,101014.70
2018-02-13T17:40:46.737Z,101008.22
2018-02-13T17:43:13.479Z,101020.37
2018-02-13T17:45:41.028Z,101022.78
2018-02-13T17:48:07.840Z,101026.44
2018-02-13T17:50:34.659Z,101033.03
2018-02-13T17:53:02.123Z,101031.91
2018-02-13T17:55:29.681Z,101034.63
2018-02-13T17:57:56.496Z,101037.52
2018-02-13T18:00:22.913Z,101038.84
2018-02-13T18:02:49.513Z,101042.36
2018-02-13T18:05:16.628Z,101043.50
2018-02-13T18:07:43.494Z,101043.59
2018-02-13T18:10:09.823Z,101047.42
2018-02-13T18:12:36.691Z,101047.23
2018-02-13T18:15:03.099Z,101056.05
2018-02-13T18:17:29.474Z,101061.53
2018-02-13T18:19:56.764Z,101066.97
2018-02-13T18:22:23.709Z,101065.16
2018-02-13T18:24:50.043Z,101065.83
2018-02-13T18:27:16.381Z,101070.13
2018-02-13T18:29:42.952Z,101068.16
2018-02-13T18:32:09.345Z,101071.59
2018-02-13T18:34:36.408Z,101078.36
2018-02-13T18:37:02.905Z,101079.42
2018-02-13T18:39:29.235Z,101081.00
2018-02-13T18:41:55.577Z,101080.34
2018-02-13T18:44:22.010Z,101080.00
2018-02-13T18:46:48.352Z,101075.46
2018-02-13T18:49:15.468Z,101083.38
2018-02-13T18:51:42.038Z,101088.16
2018-02-13T18:54:08.372Z,101090.34
2018-02-13T18:56:35.022Z,101093.97
2018-02-13T18:59:01.483Z,101093.02
2018-02-13T19:01:27.860Z,101099.02
2018-02-13T19:03:54.440Z,101105.77
2018-02-13T19:06:20.910Z,101107.92
2018-02-13T19:08:48.393Z,101104.91
2018-02-13T19:11:15.182Z,101118.08
2018-02-13T19:13:43.223Z,101103.77
2018-02-13T19:26:01.077Z,101117.12
2018-02-13T19:28:28.296Z,101112.13
2018-02-13T19:30:54.937Z,101112.70
2018-02-13T19:33:21.757Z,101111.29
2018-02-13T19:35:48.125Z,101121.53
2018-02-13T19:38:14.711Z,101126.97
2018-02-13T19:40:41.939Z,101118.45
2018-02-13T19:43:08.544Z,101124.63
2018-02-13T19:45:35.890Z,101126.33
2018-02-13T19:48:02.635Z,101125.12
2018-02-13T19:50:29.124Z,101124.03
2018-02-13T19:52:55.513Z,101130.14
2018-02-13T19:55:22.602Z,101126.89
2018-02-13T19:57:49.217Z,101130.46
2018-02-13T20:00:16.491Z,101139.75
2018-02-13T20:02:43.877Z,101141.78
2018-02-13T20:05:10.574Z,101150.80
2018-02-13T20:07:37.547Z,101155.55
2018-02-13T20:10:06.467Z,101145.33
2018-02-13T20:12:32.956Z,101145.89
2018-02-13T20:14:59.568Z,101154.09
2018-02-13T20:17:26.540Z,101160.84
2018-02-13T20:19:52.998Z,101162.48
2018-02-13T20:22:20.064Z,101159.73
2018-02-13T20:24:47.555Z,101160.50
2018-02-13T20:27:14.114Z,101165.13
2018-02-13T20:29:40.695Z,101167.61
2018-02-13T20:32:07.241Z,101169.52
2018-02-13T20:34:34.589Z,101164.02
2018-02-13T20:37:00.915Z,101163.80
2018-02-13T20:39:27.452Z,101163.31
2018-02-13T20:41:53.813Z,101156.52
2018-02-13T20:44:20.915Z,101166.28
2018-02-13T20:46:47.484Z,101171.50
2018-02-13T20:49:13.835Z,101166.88
2018-02-13T20:51:40.164Z,101170.77
2018-02-13T20:54:06.617Z,101163.42
2018-02-13T20:56:32.966Z,101169.50
2018-02-13T20:59:00.042Z,101167.70
2018-02-13T21:01:26.517Z,101174.89
2018-02-13T21:03:52.880Z,101179.06
2018-02-13T21:06:19.240Z,101166.41
2018-02-13T21:08:46.459Z,101171.67
2018-02-13T21:11:13.181Z,101175.73
2018-02-13T21:13:39.516Z,101181.05
2018-02-13T21:16:06.248Z,101179.24
2018-02-13T21:18:32.751Z,101182.53
2018-02-13T21:20:59.831Z,101177.11
2018-02-13T21:23:26.428Z,101177.98
2018-02-13T21:25:52.795Z,101179.97
2018-02-13T21:28:19.890Z,101182.45
2018-02-13T21:30:46.357Z,101184.88
2018-02-13T21:33:12.708Z,101181.91
2018-02-13T21:35:39.036Z,101179.86
2018-02-13T21:38:05.483Z,101183.77
2018-02-13T21:40:38.844Z,101186.67
2018-02-13T21:43:05.315Z,101191.56
2018-02-13T21:45:31.649Z,101191.29
2018-02-13T21:47:57.967Z,101188.16
2018-02-13T21:50:24.497Z,101178.17
2018-02-13T21:52:51.087Z,101181.02
2018-02-13T21:55:18.154Z,101185.59
2018-02-13T21:57:44.721Z,101170.78
2018-02-13T22:00:11.175Z,101171.58
2018-02-13T22:02:44.453Z,101173.36
2018-02-13T22:05:13.728Z,101171.32
2018-02-13T22:07:40.419Z,101175.94
2018-02-13T22:10:06.756Z,101168.73
2018-02-13T22:12:33.089Z,101174.73
2018-02-13T22:14:59.731Z,101183.05
2018-02-13T22:17:26.057Z,101178.51
2018-02-13T22:19:52.378Z,101179.58
2018-02-13T22:22:19.172Z,101190.44
2018-02-13T22:24:47.373Z,101196.08
2018-02-13T22:27:14.436Z,101194.73
2018-02-13T22:29:40.782Z,101197.78
2018-02-13T22:32:07.944Z,101197.47
2018-02-13T22:34:34.289Z,101200.53
2018-02-13T22:37:00.637Z,101205.32
2018-02-13T22:39:27.180Z,101205.03
2018-02-13T22:41:53.492Z,101211.12
2018-02-13T22:44:19.903Z,101212.87
2018-02-13T22:46:47.117Z,101216.89
2018-02-13T22:49:13.412Z,101218.90
2018-02-13T22:51:39.719Z,101218.31
2018-02-13T22:54:06.356Z,101223.92
2018-02-13T22:56:33.185Z,101223.59
2018-02-13T22:58:59.546Z,101222.73
2018-02-13T23:01:26.053Z,101226.66
2018-02-13T23:03:52.769Z,101229.03
2018-02-13T23:06:19.084Z,101226.49
2018-02-13T23:08:46.144Z,101228.09
2018-02-13T23:11:13.313Z,101232.00
2018-02-13T23:13:40.015Z,101241.17
2018-02-13T23:16:06.329Z,101243.31
2018-02-13T23:18:33.024Z,101243.20
2018-02-13T23:20:59.330Z,101247.31
2018-02-13T23:23:26.069Z,101245.48
2018-02-13T23:25:52.905Z,101246.95
2018-02-13T23:28:19.228Z,101245.95
2018-02-13T23:30:45.547Z,101241.58
2018-02-13T23:33:12.128Z,101252.02
2018-02-13T23:35:38.732Z,101247.94
2018-02-13T23:38:05.044Z,101248.20
2018-02-13T23:40:32.091Z,101247.81
2018-02-13T23:42:59.301Z,101241.62
2018-02-13T23:45:26.048Z,101247.02
2018-02-13T23:47:52.356Z,101246.84
2018-02-13T23:50:19.062Z,101248.52
2018-02-13T23:52:45.706Z,101254.82
2018-02-13T23:55:12.441Z,101249.85
2018-02-13T23:57:40.223Z,101254.64
